FVCV weather

Chivu Airport
Chivu, Midlands Province, Zimbabwe

Public forecast

Using degrees Celsius for public forecast. Weather courtesy of forecast.io.

Closest aviation weather report (METAR) to Chivu Airport

Report is more than 6 hours old.

Closest report is Masvingo International Airport, 61.4 nm (113.8 km) S. Retrieved 2019/10/15 12:00 UTC (3 days ago):

FVMV 151200Z 14014KT CAVOK 29/11 Q1020 NOSIG

Closest aviation forecast (TAF) to Chivu Airport

Forecast is more than 12 hours old.

Closest forecast is Masvingo International Airport, 61.4 nm (113.8 km) S. Retrieved 2018/06/07 09:00 UTC (1 year ago):

TAF FVMV 070700Z 0709/0718 16008KT 9999 SCT035 BECMG 0711/0713 CAVOK